Time;durP1;ratioP1;P1;durP2;ratioP2;P2;SDS_P1;SDS_P2;PMS_P1;PMS_P2;Temp;Humidity;BMP_temperature;BMP_pressure;BME280_temperature;BME280_humidity;BME280_pressure;Samples;Min_cycle;Max_cycle;Signal;HPM_P1;HPM_P2
2020/12/27 00:01:40;;;;;;;3.75;2.83;;;;;;;;;;5106334;28;20020;-69
2020/12/27 00:04:07;;;;;;;4.05;2.75;;;;;;;;;;5105608;28;20012;-69
2020/12/27 00:06:33;;;;;;;3.03;2.55;;;;;;;;;;5105003;28;20035;-69
2020/12/27 00:08:59;;;;;;;2.97;2.78;;;;;;;;;;5106920;28;20032;-69
2020/12/27 00:11:26;;;;;;;2.85;2.42;;;;;;;;;;5110550;28;20035;-69
2020/12/27 00:13:52;;;;;;;5.28;3.17;;;;;;;;;;5109049;28;20015;-69
2020/12/27 00:16:27;;;;;;;2.22;2.00;;;;;;;;;;5110105;28;20031;-69
2020/12/27 00:18:53;;;;;;;3.92;3.33;;;;;;;;;;5109568;28;20508;-69
2020/12/27 00:21:20;;;;;;;4.03;2.60;;;;;;;;;;5110270;28;20035;-69
2020/12/27 00:23:46;;;;;;;6.20;4.25;;;;;;;;;;5108848;28;20019;-69
2020/12/27 00:26:17;;;;;;;4.72;3.92;;;;;;;;;;5109782;28;20024;-69
2020/12/27 00:28:43;;;;;;;4.45;3.67;;;;;;;;;;5109270;28;20059;-69
2020/12/27 00:31:09;;;;;;;2.80;2.60;;;;;;;;;;5109894;28;20031;-69
2020/12/27 00:33:35;;;;;;;4.38;3.08;;;;;;;;;;5109805;28;20072;-69
2020/12/27 00:36:02;;;;;;;2.88;2.42;;;;;;;;;;5107761;28;20032;-69
2020/12/27 00:38:28;;;;;;;4.72;3.72;;;;;;;;;;5092828;28;20021;-69
2020/12/27 00:40:54;;;;;;;5.43;3.28;;;;;;;;;;5089206;28;20028;-69
2020/12/27 00:43:20;;;;;;;3.05;2.72;;;;;;;;;;5089334;28;20113;-69
2020/12/27 00:45:46;;;;;;;3.78;2.63;;;;;;;;;;5088609;28;20047;-69
2020/12/27 00:48:12;;;;;;;2.97;2.42;;;;;;;;;;5089489;28;20035;-69
2020/12/27 00:50:38;;;;;;;3.15;2.65;;;;;;;;;;5089115;28;20137;-69
2020/12/27 00:53:04;;;;;;;4.15;3.10;;;;;;;;;;5088390;28;20028;-69
2020/12/27 00:55:31;;;;;;;3.13;2.80;;;;;;;;;;5089549;28;20106;-69
2020/12/27 00:57:57;;;;;;;3.15;2.83;;;;;;;;;;5088091;28;20035;-69
2020/12/27 01:00:23;;;;;;;2.95;2.55;;;;;;;;;;5089528;28;20012;-69
2020/12/27 01:02:49;;;;;;;5.40;2.63;;;;;;;;;;5088139;28;20028;-69
2020/12/27 01:05:15;;;;;;;3.03;2.53;;;;;;;;;;5087206;28;20040;-69
2020/12/27 01:07:41;;;;;;;3.10;2.80;;;;;;;;;;5088429;28;20020;-69
2020/12/27 01:10:07;;;;;;;2.40;2.17;;;;;;;;;;5089071;28;20115;-69
2020/12/27 01:12:33;;;;;;;3.78;2.47;;;;;;;;;;5088388;28;20036;-69
2020/12/27 01:14:59;;;;;;;2.88;2.67;;;;;;;;;;5087564;28;20401;-69
2020/12/27 01:17:25;;;;;;;2.70;2.42;;;;;;;;;;5095151;28;20022;-69
2020/12/27 01:19:51;;;;;;;2.47;2.28;;;;;;;;;;5108661;28;20020;-69
2020/12/27 01:22:17;;;;;;;2.45;1.75;;;;;;;;;;5108824;28;20313;-69
2020/12/27 01:24:43;;;;;;;7.15;3.10;;;;;;;;;;5108225;28;20027;-69
2020/12/27 01:27:09;;;;;;;3.15;2.67;;;;;;;;;;5108875;28;20023;-69
2020/12/27 01:29:35;;;;;;;3.38;3.08;;;;;;;;;;5108931;28;20138;-69
2020/12/27 01:32:01;;;;;;;3.55;2.47;;;;;;;;;;5108199;28;20043;-69
2020/12/27 01:34:28;;;;;;;3.47;2.72;;;;;;;;;;5108302;28;20051;-69
2020/12/27 01:36:55;;;;;;;2.67;2.47;;;;;;;;;;5106660;28;20076;-69
2020/12/27 01:39:21;;;;;;;3.17;2.88;;;;;;;;;;5109274;28;20023;-69
2020/12/27 01:41:47;;;;;;;4.75;3.42;;;;;;;;;;5107934;28;20055;-69
2020/12/27 01:44:14;;;;;;;2.58;2.25;;;;;;;;;;5107904;28;20027;-69
2020/12/27 01:46:41;;;;;;;2.63;1.95;;;;;;;;;;5107672;28;20126;-69
2020/12/27 01:49:08;;;;;;;4.07;2.60;;;;;;;;;;5092082;28;20066;-69
2020/12/27 01:51:34;;;;;;;2.17;1.98;;;;;;;;;;5087471;28;20036;-69
2020/12/27 01:54:00;;;;;;;2.40;2.05;;;;;;;;;;5086750;28;20028;-69
2020/12/27 01:56:33;;;;;;;3.55;3.17;;;;;;;;;;5088068;28;20032;-69
2020/12/27 01:59:08;;;;;;;2.95;2.50;;;;;;;;;;5087243;28;20032;-69
2020/12/27 02:01:36;;;;;;;3.75;2.60;;;;;;;;;;5087999;28;20078;-69
2020/12/27 02:04:02;;;;;;;3.83;2.42;;;;;;;;;;5086054;28;20036;-69
2020/12/27 02:06:29;;;;;;;2.65;2.22;;;;;;;;;;5086752;28;20032;-69
2020/12/27 02:08:56;;;;;;;2.50;2.30;;;;;;;;;;5087324;28;20032;-69
2020/12/27 02:11:22;;;;;;;2.45;2.22;;;;;;;;;;5087907;28;20063;-69
2020/12/27 02:13:52;;;;;;;2.33;2.08;;;;;;;;;;5086117;28;20525;-69
2020/12/27 02:16:21;;;;;;;2.20;1.92;;;;;;;;;;5087308;28;20035;-69
2020/12/27 02:18:49;;;;;;;2.15;1.98;;;;;;;;;;5087089;28;20107;-69
2020/12/27 02:21:15;;;;;;;2.50;2.10;;;;;;;;;;5087668;28;20122;-69
2020/12/27 02:23:41;;;;;;;2.10;1.90;;;;;;;;;;5086317;28;20028;-69
2020/12/27 02:26:07;;;;;;;2.78;1.85;;;;;;;;;;5086983;28;20085;-69
2020/12/27 02:28:34;;;;;;;2.13;1.88;;;;;;;;;;5087251;28;20083;-69
2020/12/27 02:31:00;;;;;;;2.97;2.20;;;;;;;;;;5086984;28;20043;-69
2020/12/27 02:33:26;;;;;;;2.28;1.95;;;;;;;;;;5086343;28;20031;-69
2020/12/27 02:35:52;;;;;;;3.35;2.42;;;;;;;;;;5085389;28;20032;-69
2020/12/27 02:38:18;;;;;;;3.22;1.92;;;;;;;;;;5102340;28;20030;-69
2020/12/27 02:40:44;;;;;;;3.10;1.95;;;;;;;;;;5106574;28;20077;-69
2020/12/27 02:43:17;;;;;;;2.17;1.55;;;;;;;;;;5107164;28;20118;-69
2020/12/27 02:45:44;;;;;;;3.33;2.38;;;;;;;;;;5106470;28;20035;-69
2020/12/27 02:48:10;;;;;;;3.17;2.50;;;;;;;;;;5107911;28;20027;-69
2020/12/27 02:50:36;;;;;;;1.98;1.80;;;;;;;;;;5107361;28;20024;-69
2020/12/27 02:53:03;;;;;;;2.17;2.00;;;;;;;;;;5106264;28;20088;-69
2020/12/27 02:55:29;;;;;;;2.20;1.50;;;;;;;;;;5107169;28;20024;-69
2020/12/27 02:57:55;;;;;;;2.80;2.17;;;;;;;;;;5106350;28;20019;-69
2020/12/27 03:00:21;;;;;;;3.78;2.63;;;;;;;;;;5107001;28;20020;-69
2020/12/27 03:02:47;;;;;;;3.00;1.88;;;;;;;;;;5105907;28;20081;-69
2020/12/27 03:05:13;;;;;;;2.53;2.00;;;;;;;;;;5105239;28;20027;-68
2020/12/27 03:07:40;;;;;;;3.97;2.10;;;;;;;;;;5106785;28;20024;-69
2020/12/27 03:10:06;;;;;;;1.85;1.45;;;;;;;;;;5107404;28;20040;-69
2020/12/27 03:12:32;;;;;;;2.38;2.08;;;;;;;;;;5107444;28;20312;-69
2020/12/27 03:14:58;;;;;;;1.50;1.40;;;;;;;;;;5106151;28;20028;-69
2020/12/27 03:17:24;;;;;;;1.58;1.48;;;;;;;;;;5100240;28;20020;-69
2020/12/27 03:19:50;;;;;;;3.20;2.22;;;;;;;;;;5086547;28;20482;-69
2020/12/27 03:22:16;;;;;;;1.50;1.40;;;;;;;;;;5086347;28;20032;-69
2020/12/27 03:24:43;;;;;;;1.48;1.38;;;;;;;;;;5085064;28;20024;-69
2020/12/27 03:27:09;;;;;;;1.73;1.40;;;;;;;;;;5086550;28;20054;-69
2020/12/27 03:29:35;;;;;;;2.58;1.38;;;;;;;;;;5086597;28;20098;-69
2020/12/27 03:32:01;;;;;;;1.90;1.38;;;;;;;;;;5085660;28;20044;-69
2020/12/27 03:34:27;;;;;;;1.73;1.38;;;;;;;;;;5086018;28;20036;-69
2020/12/27 03:36:53;;;;;;;2.03;1.70;;;;;;;;;;5084309;28;20025;-69
2020/12/27 03:39:19;;;;;;;1.80;1.67;;;;;;;;;;5086349;28;20024;-69
2020/12/27 03:41:45;;;;;;;2.72;1.90;;;;;;;;;;5086130;28;20028;-69
2020/12/27 03:44:11;;;;;;;1.05;1.05;;;;;;;;;;5086886;28;20489;-69
2020/12/27 03:46:37;;;;;;;1.40;1.30;;;;;;;;;;5090070;28;20558;-69
2020/12/27 03:49:03;;;;;;;1.63;1.30;;;;;;;;;;5106550;28;20397;-69
2020/12/27 03:51:30;;;;;;;1.50;1.40;;;;;;;;;;5110772;28;20047;-69
2020/12/27 03:53:56;;;;;;;1.33;1.27;;;;;;;;;;5109476;28;20039;-69
2020/12/27 03:56:23;;;;;;;3.13;2.90;;;;;;;;;;5110431;28;20452;-69
2020/12/27 03:58:49;;;;;;;1.67;1.13;;;;;;;;;;5110123;28;20043;-69
2020/12/27 04:01:16;;;;;;;1.40;1.30;;;;;;;;;;5110763;28;20462;-69
2020/12/27 04:03:42;;;;;;;1.27;1.17;;;;;;;;;;5108907;28;20270;-69
2020/12/27 04:06:08;;;;;;;1.55;1.25;;;;;;;;;;5108614;28;20027;-69
2020/12/27 04:08:34;;;;;;;2.25;1.45;;;;;;;;;;5110572;28;20024;-69
2020/12/27 04:11:00;;;;;;;1.33;1.00;;;;;;;;;;5109783;28;20046;-69
2020/12/27 04:13:27;;;;;;;1.25;1.15;;;;;;;;;;5110275;28;20034;-69
2020/12/27 04:15:53;;;;;;;1.05;1.02;;;;;;;;;;5109259;28;20027;-69
2020/12/27 04:18:19;;;;;;;1.25;1.15;;;;;;;;;;5109897;28;20113;-69
2020/12/27 04:20:45;;;;;;;1.63;1.52;;;;;;;;;;5109839;28;20127;-69
2020/12/27 04:23:12;;;;;;;1.13;1.02;;;;;;;;;;5109668;28;20023;-69
2020/12/27 04:25:38;;;;;;;1.85;1.20;;;;;;;;;;5109306;28;20030;-69
2020/12/27 04:28:04;;;;;;;1.80;1.10;;;;;;;;;;5109648;28;20058;-69
2020/12/27 04:30:30;;;;;;;1.65;1.33;;;;;;;;;;5110274;28;20051;-68
2020/12/27 04:32:56;;;;;;;1.52;1.10;;;;;;;;;;5108461;28;20084;-69
2020/12/27 04:35:22;;;;;;;2.70;1.30;;;;;;;;;;5108129;28;20107;-69
2020/12/27 04:37:48;;;;;;;2.92;2.05;;;;;;;;;;5098362;28;20024;-69
2020/12/27 04:40:14;;;;;;;0.88;0.88;;;;;;;;;;5089308;28;20031;-69
2020/12/27 04:42:42;;;;;;;1.27;1.25;;;;;;;;;;5080161;28;20506;-69
2020/12/27 04:45:08;;;;;;;0.93;0.75;;;;;;;;;;5089168;28;20510;-69
2020/12/27 04:47:35;;;;;;;0.70;0.68;;;;;;;;;;5088974;28;20555;-69
2020/12/27 04:50:01;;;;;;;1.65;1.40;;;;;;;;;;5088968;28;20118;-69
2020/12/27 04:52:32;;;;;;;1.60;1.40;;;;;;;;;;5089087;28;20040;-69
2020/12/27 04:54:58;;;;;;;1.60;1.48;;;;;;;;;;5087248;28;20032;-69
2020/12/27 04:57:24;;;;;;;1.30;1.20;;;;;;;;;;5088387;28;20051;-69
2020/12/27 04:59:52;;;;;;;0.68;0.57;;;;;;;;;;5088575;28;20123;-69
2020/12/27 05:02:18;;;;;;;0.77;0.70;;;;;;;;;;5088276;28;20028;-69
2020/12/27 05:04:45;;;;;;;1.63;1.02;;;;;;;;;;5086846;28;20024;-69
2020/12/27 05:07:16;;;;;;;0.85;0.85;;;;;;;;;;5088574;28;20028;-69
2020/12/27 05:09:43;;;;;;;1.17;0.82;;;;;;;;;;5088355;28;20028;-69
2020/12/27 05:12:10;;;;;;;0.80;0.70;;;;;;;;;;5088410;28;20043;-69
2020/12/27 05:14:36;;;;;;;1.10;0.80;;;;;;;;;;5088064;28;20031;-69
2020/12/27 05:17:02;;;;;;;1.77;1.02;;;;;;;;;;5091370;28;20504;-69
2020/12/27 05:19:28;;;;;;;1.73;1.23;;;;;;;;;;5109034;28;20038;-69
2020/12/27 05:22:12;;;;;;;0.95;0.70;;;;;;;;;;5108796;28;20131;-69
2020/12/27 05:24:39;;;;;;;1.20;0.88;;;;;;;;;;5108000;28;20099;-69
2020/12/27 05:27:14;;;;;;;1.80;0.88;;;;;;;;;;5108228;28;20536;-69
2020/12/27 05:29:42;;;;;;;0.65;0.65;;;;;;;;;;5108454;28;20051;-69
2020/12/27 05:32:09;;;;;;;0.80;0.50;;;;;;;;;;5108915;28;20043;-69
2020/12/27 05:34:35;;;;;;;2.22;0.85;;;;;;;;;;5108221;28;20028;-69
2020/12/27 05:37:04;;;;;;;1.38;1.25;;;;;;;;;;5107294;28;20080;-69
2020/12/27 05:39:30;;;;;;;2.17;0.98;;;;;;;;;;5108690;28;20207;-69
2020/12/27 05:42:04;;;;;;;1.05;0.82;;;;;;;;;;5107674;28;20452;-69
2020/12/27 05:44:30;;;;;;;0.82;0.80;;;;;;;;;;5107923;28;20024;-69
2020/12/27 05:46:57;;;;;;;4.88;1.85;;;;;;;;;;5107641;28;20040;-69
2020/12/27 05:49:24;;;;;;;1.27;1.17;;;;;;;;;;5089510;28;20030;-69
2020/12/27 05:51:51;;;;;;;0.98;0.75;;;;;;;;;;5086840;28;20036;-69
2020/12/27 05:54:22;;;;;;;1.23;0.65;;;;;;;;;;5087339;28;20653;-69
2020/12/27 05:56:54;;;;;;;1.38;0.88;;;;;;;;;;5086823;28;20024;-69
2020/12/27 05:59:22;;;;;;;1.20;1.13;;;;;;;;;;5088248;28;20046;-69
2020/12/27 06:01:54;;;;;;;0.85;0.80;;;;;;;;;;5086822;28;20024;-69
2020/12/27 06:04:39;;;;;;;1.10;1.00;;;;;;;;;;5087325;28;20029;-69
2020/12/27 06:07:08;;;;;;;1.75;1.23;;;;;;;;;;5086783;28;20036;-69
2020/12/27 06:09:46;;;;;;;1.08;1.02;;;;;;;;;;5088184;28;20027;-69
2020/12/27 06:12:15;;;;;;;0.63;0.63;;;;;;;;;;5087167;28;20032;-69
2020/12/27 06:14:43;;;;;;;1.48;0.95;;;;;;;;;;5086532;28;20066;-69
2020/12/27 06:17:15;;;;;;;1.77;0.80;;;;;;;;;;5087684;28;20039;-69
2020/12/27 06:19:56;;;;;;;1.25;1.13;;;;;;;;;;5087421;28;20021;-69
2020/12/27 06:22:32;;;;;;;1.17;0.90;;;;;;;;;;5087238;28;20039;-69
2020/12/27 06:24:59;;;;;;;1.15;0.80;;;;;;;;;;5086749;28;20390;-69
2020/12/27 06:27:27;;;;;;;1.02;0.47;;;;;;;;;;5087325;28;20024;-69
2020/12/27 06:29:55;;;;;;;0.88;0.70;;;;;;;;;;5086858;28;20060;-69
2020/12/27 06:32:23;;;;;;;1.08;0.57;;;;;;;;;;5087133;28;20123;-69
2020/12/27 06:34:49;;;;;;;1.17;0.77;;;;;;;;;;5085820;28;20039;-69
2020/12/27 06:37:16;;;;;;;0.98;0.65;;;;;;;;;;5093067;28;20019;-69
2020/12/27 06:39:46;;;;;;;1.50;0.60;;;;;;;;;;5107604;28;20036;-69
2020/12/27 06:42:16;;;;;;;1.38;0.93;;;;;;;;;;5107555;28;20024;-69
2020/12/27 06:44:43;;;;;;;0.93;0.85;;;;;;;;;;5106336;28;20055;-69
2020/12/27 06:47:09;;;;;;;1.45;1.02;;;;;;;;;;5107484;28;20080;-69
2020/12/27 06:49:35;;;;;;;0.98;0.77;;;;;;;;;;5107599;28;20096;-69
2020/12/27 06:52:20;;;;;;;0.90;0.90;;;;;;;;;;5106674;28;20544;-69
2020/12/27 06:54:50;;;;;;;0.63;0.52;;;;;;;;;;5106501;28;20107;-69
2020/12/27 06:57:34;;;;;;;0.65;0.65;;;;;;;;;;5106907;28;20020;-69
2020/12/27 07:00:19;;;;;;;1.25;1.15;;;;;;;;;;5107153;28;20110;-69
2020/12/27 07:02:45;;;;;;;0.75;0.47;;;;;;;;;;5106068;28;20482;-69
2020/12/27 07:05:26;;;;;;;0.60;0.60;;;;;;;;;;5105619;28;20115;-69
2020/12/27 07:07:52;;;;;;;1.67;1.20;;;;;;;;;;5106744;28;20035;-69
2020/12/27 07:10:18;;;;;;;1.02;0.88;;;;;;;;;;5107716;28;20133;-69
2020/12/27 07:12:44;;;;;;;1.38;0.88;;;;;;;;;;5106151;28;20031;-69
2020/12/27 07:15:10;;;;;;;1.20;0.88;;;;;;;;;;5107088;28;20480;-69
2020/12/27 07:17:36;;;;;;;0.88;0.80;;;;;;;;;;5098651;28;20028;-69
2020/12/27 07:20:15;;;;;;;0.75;0.75;;;;;;;;;;5086118;28;20560;-69
2020/12/27 07:22:41;;;;;;;1.45;0.60;;;;;;;;;;5086157;28;20035;-69
2020/12/27 07:25:11;;;;;;;0.85;0.80;;;;;;;;;;5086163;28;20458;-69
2020/12/27 07:27:40;;;;;;;1.33;0.88;;;;;;;;;;5085774;28;20394;-69
2020/12/27 07:30:06;;;;;;;1.40;0.98;;;;;;;;;;5086494;28;20028;-69
2020/12/27 07:32:38;;;;;;;1.55;1.10;;;;;;;;;;5086241;28;20422;-69
2020/12/27 07:35:09;;;;;;;0.68;0.68;;;;;;;;;;5085179;28;20028;-69
2020/12/27 07:37:35;;;;;;;1.60;0.80;;;;;;;;;;5086394;28;20074;-69
2020/12/27 07:40:01;;;;;;;1.33;1.08;;;;;;;;;;5086835;28;20032;-69
2020/12/27 07:42:28;;;;;;;0.80;0.80;;;;;;;;;;5086599;28;20500;-69
2020/12/27 07:44:55;;;;;;;1.75;1.10;;;;;;;;;;5085425;28;20103;-69
2020/12/27 07:47:21;;;;;;;2.70;1.05;;;;;;;;;;5087593;28;20039;-69
2020/12/27 07:50:06;;;;;;;2.45;1.38;;;;;;;;;;5106626;28;20132;-69
2020/12/27 07:52:45;;;;;;;1.00;0.90;;;;;;;;;;5106262;28;20055;-69
2020/12/27 07:55:20;;;;;;;1.40;1.15;;;;;;;;;;5106617;28;20028;-69
2020/12/27 07:57:46;;;;;;;1.33;1.08;;;;;;;;;;5105963;28;20082;-69
2020/12/27 08:00:12;;;;;;;5.55;1.55;;;;;;;;;;5106803;28;20366;-69
2020/12/27 08:02:42;;;;;;;2.20;1.05;;;;;;;;;;5106262;28;20020;-69
2020/12/27 08:05:09;;;;;;;2.63;1.67;;;;;;;;;;5105005;28;20427;-69
2020/12/27 08:07:35;;;;;;;1.40;1.25;;;;;;;;;;5106248;28;20328;-69
2020/12/27 08:10:12;;;;;;;1.30;1.20;;;;;;;;;;5106221;28;20035;-69
2020/12/27 08:12:38;;;;;;;1.38;1.23;;;;;;;;;;5105840;28;20042;-69
2020/12/27 08:15:08;;;;;;;2.92;1.42;;;;;;;;;;5106126;28;20027;-69
2020/12/27 08:17:34;;;;;;;2.58;1.70;;;;;;;;;;5106121;28;20035;-69
2020/12/27 08:20:01;;;;;;;2.53;2.13;;;;;;;;;;5106318;28;20040;-69
2020/12/27 08:22:27;;;;;;;1.65;1.55;;;;;;;;;;5106398;28;20046;-69
2020/12/27 08:24:53;;;;;;;5.10;3.17;;;;;;;;;;5105383;28;20216;-69
2020/12/27 08:27:19;;;;;;;2.78;2.30;;;;;;;;;;5106076;28;20047;-69
2020/12/27 08:29:45;;;;;;;3.22;2.38;;;;;;;;;;5106729;28;20108;-69
2020/12/27 08:32:11;;;;;;;4.30;2.35;;;;;;;;;;5110161;28;20036;-69
2020/12/27 08:34:37;;;;;;;3.00;2.08;;;;;;;;;;5109044;28;20045;-69
2020/12/27 08:37:03;;;;;;;2.28;1.98;;;;;;;;;;5103752;28;20027;-69
2020/12/27 08:39:35;;;;;;;3.17;2.15;;;;;;;;;;5089379;28;20036;-69
2020/12/27 08:42:07;;;;;;;2.80;2.38;;;;;;;;;;5089055;28;20059;-69
2020/12/27 08:44:33;;;;;;;4.22;2.58;;;;;;;;;;5088587;28;20032;-69
2020/12/27 08:47:02;;;;;;;3.13;2.38;;;;;;;;;;5088753;28;21017;-69
2020/12/27 08:49:39;;;;;;;2.55;2.35;;;;;;;;;;5089749;28;20017;-69
2020/12/27 08:52:07;;;;;;;3.15;2.38;;;;;;;;;;5089127;28;20482;-69
2020/12/27 08:54:34;;;;;;;4.75;2.80;;;;;;;;;;5089007;28;20059;-69
2020/12/27 08:57:01;;;;;;;4.82;2.90;;;;;;;;;;5088590;28;20053;-69
2020/12/27 08:59:27;;;;;;;2.38;1.88;;;;;;;;;;5089064;28;20020;-69
2020/12/27 09:01:54;;;;;;;3.30;2.63;;;;;;;;;;5085867;28;20108;-69
2020/12/27 09:04:20;;;;;;;3.08;2.28;;;;;;;;;;5087826;28;20032;-69
2020/12/27 09:06:54;;;;;;;3.63;2.35;;;;;;;;;;5086454;28;20130;-69
2020/12/27 09:09:20;;;;;;;3.15;2.95;;;;;;;;;;5088100;28;20028;-69
2020/12/27 09:11:47;;;;;;;2.35;2.17;;;;;;;;;;5087605;28;20067;-69
2020/12/27 09:14:32;;;;;;;2.60;2.40;;;;;;;;;;5087669;28;20032;-69
2020/12/27 09:17:01;;;;;;;3.10;2.78;;;;;;;;;;5089850;28;20085;-69
2020/12/27 09:19:27;;;;;;;2.88;2.40;;;;;;;;;;5108505;28;20123;-69
2020/12/27 09:21:53;;;;;;;3.72;2.80;;;;;;;;;;5107606;28;20039;-69
2020/12/27 09:24:19;;;;;;;3.17;2.80;;;;;;;;;;5107985;28;20443;-69
2020/12/27 09:26:45;;;;;;;3.40;2.47;;;;;;;;;;5107729;28;20118;-69
2020/12/27 09:29:15;;;;;;;3.40;2.70;;;;;;;;;;5108475;28;20490;-69
2020/12/27 09:31:41;;;;;;;3.28;2.95;;;;;;;;;;5107477;28;20517;-69
2020/12/27 09:34:07;;;;;;;2.83;2.53;;;;;;;;;;5108219;28;20383;-69
2020/12/27 09:36:34;;;;;;;3.17;2.13;;;;;;;;;;5107288;28;20028;-69
2020/12/27 09:39:00;;;;;;;2.63;2.38;;;;;;;;;;5107484;28;20043;-69
2020/12/27 09:41:26;;;;;;;2.53;2.33;;;;;;;;;;5107981;28;20488;-69
2020/12/27 09:44:02;;;;;;;3.42;2.78;;;;;;;;;;5107102;28;20023;-69
2020/12/27 09:46:40;;;;;;;3.85;2.75;;;;;;;;;;5108319;28;20058;-69
2020/12/27 09:49:20;;;;;;;2.92;2.30;;;;;;;;;;5092079;28;20379;-69
2020/12/27 09:51:46;;;;;;;2.42;2.08;;;;;;;;;;5087659;28;20028;-69
2020/12/27 09:54:12;;;;;;;4.20;2.92;;;;;;;;;;5087616;28;20036;-69
2020/12/27 09:56:42;;;;;;;2.88;2.20;;;;;;;;;;5087234;28;20401;-69
2020/12/27 09:59:09;;;;;;;3.47;2.90;;;;;;;;;;5088045;28;20512;-69
2020/12/27 10:01:35;;;;;;;3.67;2.70;;;;;;;;;;5087943;28;20525;-69
2020/12/27 10:04:01;;;;;;;4.07;2.83;;;;;;;;;;5086820;28;20509;-69
2020/12/27 10:06:27;;;;;;;2.47;2.33;;;;;;;;;;5086365;28;20036;-69
2020/12/27 10:08:53;;;;;;;3.72;2.88;;;;;;;;;;5086841;28;20032;-69
2020/12/27 10:11:19;;;;;;;2.85;2.53;;;;;;;;;;5087780;28;20020;-69
2020/12/27 10:13:45;;;;;;;4.15;2.92;;;;;;;;;;5086800;28;20071;-69
2020/12/27 10:16:11;;;;;;;4.28;2.78;;;;;;;;;;5087260;28;20055;-69
2020/12/27 10:18:37;;;;;;;4.00;2.70;;;;;;;;;;5087445;28;20032;-69
2020/12/27 10:21:03;;;;;;;3.88;3.13;;;;;;;;;;5087647;28;20085;-69
2020/12/27 10:23:29;;;;;;;6.75;2.78;;;;;;;;;;5086479;28;20237;-69
2020/12/27 10:25:55;;;;;;;4.97;3.17;;;;;;;;;;5086590;28;20399;-69
2020/12/27 10:28:21;;;;;;;4.43;4.07;;;;;;;;;;5087036;28;20052;-69
2020/12/27 10:30:47;;;;;;;4.05;3.13;;;;;;;;;;5086764;28;20035;-69
2020/12/27 10:33:16;;;;;;;5.53;3.22;;;;;;;;;;5086461;28;20063;-69
2020/12/27 10:35:42;;;;;;;4.05;3.65;;;;;;;;;;5085428;28;20545;-69
2020/12/27 10:38:08;;;;;;;6.72;4.28;;;;;;;;;;5100795;28;20027;-69
2020/12/27 10:40:37;;;;;;;4.45;3.28;;;;;;;;;;5107589;28;20570;-69
2020/12/27 10:43:04;;;;;;;5.60;4.22;;;;;;;;;;5106778;28;20023;-69
2020/12/27 10:45:30;;;;;;;3.67;3.15;;;;;;;;;;5107433;28;20031;-69
2020/12/27 10:47:56;;;;;;;4.07;3.65;;;;;;;;;;5106807;28;20656;-69
2020/12/27 10:50:22;;;;;;;4.13;3.72;;;;;;;;;;5107605;28;20517;-69
2020/12/27 10:52:48;;;;;;;6.50;5.03;;;;;;;;;;5106072;28;20043;-69
2020/12/27 10:55:14;;;;;;;6.75;4.45;;;;;;;;;;5107225;28;20027;-69
2020/12/27 10:57:40;;;;;;;4.53;4.10;;;;;;;;;;5106887;28;20077;-69
2020/12/27 11:00:06;;;;;;;4.65;4.25;;;;;;;;;;5107767;28;20140;-69
2020/12/27 11:02:32;;;;;;;5.60;3.65;;;;;;;;;;5106955;28;20038;-69
2020/12/27 11:04:58;;;;;;;5.18;3.88;;;;;;;;;;5105506;28;20039;-69
2020/12/27 11:07:24;;;;;;;5.20;4.70;;;;;;;;;;5106814;28;20016;-69
2020/12/27 11:09:50;;;;;;;5.30;4.15;;;;;;;;;;5106623;28;20087;-69
2020/12/27 11:12:16;;;;;;;3.70;3.40;;;;;;;;;;5106773;28;20350;-69
2020/12/27 11:14:42;;;;;;;5.43;4.03;;;;;;;;;;5106524;28;20027;-69
2020/12/27 11:17:08;;;;;;;4.85;4.35;;;;;;;;;;5102675;28;20008;-69
2020/12/27 11:19:35;;;;;;;4.85;4.00;;;;;;;;;;5087010;28;20024;-69
2020/12/27 11:22:01;;;;;;;6.25;4.60;;;;;;;;;;5086233;28;20106;-69
2020/12/27 11:24:27;;;;;;;5.43;4.13;;;;;;;;;;5085814;28;20035;-69
2020/12/27 11:26:56;;;;;;;7.05;5.50;;;;;;;;;;5085617;28;20034;-69
2020/12/27 11:29:22;;;;;;;4.57;3.83;;;;;;;;;;5086781;28;20371;-69
2020/12/27 11:31:52;;;;;;;6.90;5.13;;;;;;;;;;5086250;28;20024;-69
2020/12/27 11:34:18;;;;;;;6.88;4.55;;;;;;;;;;5086121;28;20050;-69
2020/12/27 11:36:47;;;;;;;5.43;4.70;;;;;;;;;;5085129;28;20082;-69
2020/12/27 11:39:13;;;;;;;4.88;4.47;;;;;;;;;;5086700;28;20024;-69
2020/12/27 11:41:39;;;;;;;6.28;5.28;;;;;;;;;;5077366;28;20024;-69
2020/12/27 11:44:05;;;;;;;7.43;5.00;;;;;;;;;;5086217;28;20028;-69
2020/12/27 11:46:33;;;;;;;5.43;4.90;;;;;;;;;;5086244;28;20039;-69
2020/12/27 11:48:59;;;;;;;7.03;4.60;;;;;;;;;;5100716;28;20038;-69
2020/12/27 11:51:25;;;;;;;4.82;4.22;;;;;;;;;;5106997;28;20181;-69
2020/12/27 11:53:52;;;;;;;7.60;4.95;;;;;;;;;;5105401;28;20035;-69
2020/12/27 11:56:18;;;;;;;5.78;5.18;;;;;;;;;;5106441;28;20590;-69
2020/12/27 11:58:44;;;;;;;5.32;4.90;;;;;;;;;;5106210;28;20031;-69
2020/12/27 12:01:11;;;;;;;5.50;4.95;;;;;;;;;;5088707;28;20415;-69
2020/12/27 12:03:37;;;;;;;6.03;5.38;;;;;;;;;;5105795;28;20033;-69
2020/12/27 12:06:03;;;;;;;5.70;5.13;;;;;;;;;;5107666;28;20020;-69
2020/12/27 12:08:30;;;;;;;4.80;4.40;;;;;;;;;;5110501;28;20051;-69
2020/12/27 12:10:56;;;;;;;6.35;5.70;;;;;;;;;;5110173;28;20032;-69
2020/12/27 12:13:22;;;;;;;9.43;6.00;;;;;;;;;;5110082;28;20031;-69
2020/12/27 12:15:48;;;;;;;6.50;5.50;;;;;;;;;;5109498;28;20102;-69
2020/12/27 12:18:14;;;;;;;7.82;5.15;;;;;;;;;;5110298;28;20047;-69
2020/12/27 12:20:45;;;;;;;6.10;5.45;;;;;;;;;;5110691;28;20031;-69
2020/12/27 12:23:11;;;;;;;6.47;5.88;;;;;;;;;;5109712;28;20023;-69
2020/12/27 12:25:40;;;;;;;7.40;6.65;;;;;;;;;;5109878;28;20043;-69
2020/12/27 12:28:06;;;;;;;6.35;5.75;;;;;;;;;;5109954;28;20070;-69
2020/12/27 12:30:32;;;;;;;11.52;6.28;;;;;;;;;;5110133;28;20509;-69
2020/12/27 12:32:58;;;;;;;7.50;6.45;;;;;;;;;;5108904;28;20067;-69
2020/12/27 12:35:24;;;;;;;6.22;5.40;;;;;;;;;;5108497;28;20444;-69
2020/12/27 12:37:51;;;;;;;6.78;6.07;;;;;;;;;;5098357;28;20046;-69
2020/12/27 12:40:17;;;;;;;7.82;6.55;;;;;;;;;;5089733;28;20482;-69
2020/12/27 12:42:43;;;;;;;6.00;5.20;;;;;;;;;;5088369;28;20070;-69
2020/12/27 12:45:09;;;;;;;9.10;6.25;;;;;;;;;;5089317;28;20020;-69
2020/12/27 12:47:35;;;;;;;6.43;5.75;;;;;;;;;;5089296;28;20035;-69
2020/12/27 12:50:01;;;;;;;5.88;5.22;;;;;;;;;;5089199;28;20093;-69
2020/12/27 12:52:27;;;;;;;6.65;5.75;;;;;;;;;;5070602;28;20445;-69
2020/12/27 12:54:53;;;;;;;8.07;5.47;;;;;;;;;;5088213;28;20024;-69
2020/12/27 12:57:19;;;;;;;7.95;6.95;;;;;;;;;;5088805;28;20039;-69
2020/12/27 12:59:45;;;;;;;7.80;5.60;;;;;;;;;;5088655;28;20494;-69
2020/12/27 13:02:12;;;;;;;9.07;7.00;;;;;;;;;;5089789;28;20402;-69
2020/12/27 13:04:38;;;;;;;6.50;5.57;;;;;;;;;;5087834;28;20409;-69
2020/12/27 13:07:04;;;;;;;6.85;5.90;;;;;;;;;;5087913;28;20093;-69
2020/12/27 13:09:31;;;;;;;6.82;5.88;;;;;;;;;;5089165;28;20557;-69
2020/12/27 13:11:57;;;;;;;9.23;6.50;;;;;;;;;;5088453;28;20119;-69
2020/12/27 13:14:23;;;;;;;7.25;5.70;;;;;;;;;;5088666;28;20024;-69
2020/12/27 13:16:49;;;;;;;7.22;5.05;;;;;;;;;;5087811;28;20067;-69
2020/12/27 13:19:15;;;;;;;7.68;6.93;;;;;;;;;;5109680;28;20073;-69
2020/12/27 13:21:41;;;;;;;8.13;6.20;;;;;;;;;;5108475;28;20096;-69
2020/12/27 13:24:07;;;;;;;7.13;5.85;;;;;;;;;;5108589;28;20024;-69
2020/12/27 13:26:33;;;;;;;7.18;5.68;;;;;;;;;;5108653;28;20023;-69
2020/12/27 13:28:59;;;;;;;7.07;6.32;;;;;;;;;;5108530;28;20059;-69
2020/12/27 13:31:25;;;;;;;6.40;5.10;;;;;;;;;;5108832;28;20024;-69
2020/12/27 13:33:52;;;;;;;8.32;7.13;;;;;;;;;;5108125;28;20072;-69
2020/12/27 13:36:18;;;;;;;6.80;5.93;;;;;;;;;;5107382;28;20027;-69
2020/12/27 13:38:44;;;;;;;8.45;6.22;;;;;;;;;;5108578;28;20032;-69
2020/12/27 13:41:10;;;;;;;6.60;5.55;;;;;;;;;;5109231;28;20059;-69
2020/12/27 13:43:36;;;;;;;6.57;5.57;;;;;;;;;;5108381;28;20052;-69
2020/12/27 13:46:03;;;;;;;6.53;5.82;;;;;;;;;;5108443;28;20019;-69
2020/12/27 13:48:29;;;;;;;8.70;6.82;;;;;;;;;;5097646;28;20032;-69
2020/12/27 13:50:55;;;;;;;7.35;6.18;;;;;;;;;;5088072;28;20891;-69
2020/12/27 13:53:21;;;;;;;7.10;5.43;;;;;;;;;;5087625;28;20414;-69
2020/12/27 13:55:48;;;;;;;8.05;7.25;;;;;;;;;;5087057;28;20043;-69
2020/12/27 13:58:14;;;;;;;6.45;5.22;;;;;;;;;;5087946;28;20032;-69
2020/12/27 14:00:40;;;;;;;7.13;5.78;;;;;;;;;;5079767;28;20347;-69
2020/12/27 14:03:06;;;;;;;7.53;6.70;;;;;;;;;;5087835;28;20055;-69
2020/12/27 14:05:34;;;;;;;7.63;5.68;;;;;;;;;;5086409;28;20026;-69
2020/12/27 14:08:00;;;;;;;6.15;5.25;;;;;;;;;;5087307;28;20046;-69
2020/12/27 14:10:26;;;;;;;5.90;5.20;;;;;;;;;;5088135;28;20406;-69
2020/12/27 14:12:52;;;;;;;8.30;6.72;;;;;;;;;;5085919;28;20036;-69
2020/12/27 14:15:18;;;;;;;7.88;5.28;;;;;;;;;;5087177;28;20107;-69
2020/12/27 14:17:44;;;;;;;6.53;5.68;;;;;;;;;;5087119;28;20039;-69
2020/12/27 14:20:12;;;;;;;8.43;5.90;;;;;;;;;;5088262;28;20099;-69
2020/12/27 14:22:38;;;;;;;6.22;5.20;;;;;;;;;;5087185;28;20418;-69
2020/12/27 14:25:04;;;;;;;7.10;5.78;;;;;;;;;;5087142;28;20028;-69
2020/12/27 14:27:30;;;;;;;7.60;6.40;;;;;;;;;;5087177;28;20490;-69
2020/12/27 14:29:57;;;;;;;8.27;6.85;;;;;;;;;;5087045;28;20566;-69
2020/12/27 14:32:24;;;;;;;7.38;6.38;;;;;;;;;;5087534;28;20028;-69
2020/12/27 14:34:50;;;;;;;6.05;5.15;;;;;;;;;;5085473;28;20093;-70
2020/12/27 14:37:16;;;;;;;9.52;6.13;;;;;;;;;;5092546;28;20554;-70
2020/12/27 14:39:42;;;;;;;6.63;5.53;;;;;;;;;;5107242;28;20027;-69
2020/12/27 14:42:08;;;;;;;8.35;5.75;;;;;;;;;;5107407;28;20470;-69
2020/12/27 14:44:34;;;;;;;7.32;5.72;;;;;;;;;;5106980;28;20115;-69